sensor_id;sensor_type;location;lat;lon;timestamp;P1;durP1;ratioP1;P2;durP2;ratioP2
54171;SDS011;40076;52.354;4.970;2022-10-15T00:00:05;40.45;;;25.92;;
54171;SDS011;40076;52.354;4.970;2022-10-15T00:02:31;41.30;;;27.02;;
54171;SDS011;40076;52.354;4.970;2022-10-15T00:04:57;39.88;;;27.60;;
54171;SDS011;40076;52.354;4.970;2022-10-15T00:07:22;36.80;;;25.92;;
54171;SDS011;40076;52.354;4.970;2022-10-15T00:09:48;39.78;;;26.75;;
54171;SDS011;40076;52.354;4.970;2022-10-15T00:12:13;38.60;;;27.05;;
54171;SDS011;40076;52.354;4.970;2022-10-15T00:14:39;42.17;;;25.60;;
54171;SDS011;40076;52.354;4.970;2022-10-15T00:17:04;42.38;;;26.75;;
54171;SDS011;40076;52.354;4.970;2022-10-15T00:19:29;38.80;;;26.63;;
54171;SDS011;40076;52.354;4.970;2022-10-15T00:21:54;39.80;;;27.58;;
54171;SDS011;40076;52.354;4.970;2022-10-15T00:24:20;40.10;;;27.25;;
54171;SDS011;40076;52.354;4.970;2022-10-15T00:26:45;41.28;;;27.90;;
54171;SDS011;40076;52.354;4.970;2022-10-15T00:29:10;43.55;;;27.70;;
54171;SDS011;40076;52.354;4.970;2022-10-15T00:31:36;42.83;;;28.42;;
54171;SDS011;40076;52.354;4.970;2022-10-15T00:34:01;44.38;;;29.75;;
54171;SDS011;40076;52.354;4.970;2022-10-15T00:36:28;44.45;;;29.88;;
54171;SDS011;40076;52.354;4.970;2022-10-15T00:38:55;47.13;;;31.70;;
54171;SDS011;40076;52.354;4.970;2022-10-15T00:41:22;51.17;;;32.08;;
54171;SDS011;40076;52.354;4.970;2022-10-15T00:46:34;49.15;;;33.85;;
54171;SDS011;40076;52.354;4.970;2022-10-15T00:49:25;53.03;;;34.60;;
54171;SDS011;40076;52.354;4.970;2022-10-15T00:54:31;52.03;;;34.30;;
54171;SDS011;40076;52.354;4.970;2022-10-15T00:57:05;50.85;;;33.55;;
54171;SDS011;40076;52.354;4.970;2022-10-15T00:59:31;53.20;;;35.63;;
54171;SDS011;40076;52.354;4.970;2022-10-15T01:02:02;55.80;;;36.83;;
54171;SDS011;40076;52.354;4.970;2022-10-15T01:04:29;57.40;;;36.63;;
54171;SDS011;40076;52.354;4.970;2022-10-15T01:06:55;60.50;;;39.63;;
54171;SDS011;40076;52.354;4.970;2022-10-15T01:09:20;59.65;;;37.38;;
54171;SDS011;40076;52.354;4.970;2022-10-15T01:11:47;57.05;;;38.85;;
54171;SDS011;40076;52.354;4.970;2022-10-15T01:22:14;60.90;;;39.55;;
54171;SDS011;40076;52.354;4.970;2022-10-15T01:24:57;64.55;;;40.55;;
54171;SDS011;40076;52.354;4.970;2022-10-15T01:27:42;59.83;;;39.08;;
54171;SDS011;40076;52.354;4.970;2022-10-15T01:30:19;58.80;;;38.45;;
54171;SDS011;40076;52.354;4.970;2022-10-15T01:32:53;54.22;;;36.65;;
54171;SDS011;40076;52.354;4.970;2022-10-15T01:38:19;55.60;;;38.85;;
54171;SDS011;40076;52.354;4.970;2022-10-15T01:41:09;60.55;;;39.80;;
54171;SDS011;40076;52.354;4.970;2022-10-15T01:46:09;57.75;;;37.22;;
54171;SDS011;40076;52.354;4.970;2022-10-15T01:48:37;57.92;;;37.90;;
54171;SDS011;40076;52.354;4.970;2022-10-15T01:51:05;62.13;;;39.70;;
54171;SDS011;40076;52.354;4.970;2022-10-15T01:53:32;60.13;;;38.80;;
54171;SDS011;40076;52.354;4.970;2022-10-15T01:56:01;63.35;;;41.20;;
54171;SDS011;40076;52.354;4.970;2022-10-15T01:58:30;63.40;;;40.78;;
54171;SDS011;40076;52.354;4.970;2022-10-15T02:00:59;62.58;;;42.00;;
54171;SDS011;40076;52.354;4.970;2022-10-15T02:03:25;61.97;;;40.15;;
54171;SDS011;40076;52.354;4.970;2022-10-15T02:06:05;60.17;;;41.33;;
54171;SDS011;40076;52.354;4.970;2022-10-15T02:11:10;60.63;;;40.17;;
54171;SDS011;40076;52.354;4.970;2022-10-15T02:19:37;62.78;;;40.92;;
54171;SDS011;40076;52.354;4.970;2022-10-15T02:22:08;61.72;;;43.05;;
54171;SDS011;40076;52.354;4.970;2022-10-15T02:24:41;64.18;;;43.22;;
54171;SDS011;40076;52.354;4.970;2022-10-15T02:27:20;68.30;;;43.70;;
54171;SDS011;40076;52.354;4.970;2022-10-15T02:29:45;66.13;;;43.22;;
54171;SDS011;40076;52.354;4.970;2022-10-15T02:32:14;61.88;;;42.13;;
54171;SDS011;40076;52.354;4.970;2022-10-15T02:34:41;62.47;;;42.30;;
54171;SDS011;40076;52.354;4.970;2022-10-15T02:37:10;65.18;;;42.95;;
54171;SDS011;40076;52.354;4.970;2022-10-15T02:39:36;67.32;;;42.83;;
54171;SDS011;40076;52.354;4.970;2022-10-15T02:42:01;69.93;;;46.08;;
54171;SDS011;40076;52.354;4.970;2022-10-15T02:44:28;68.57;;;43.70;;
54171;SDS011;40076;52.354;4.970;2022-10-15T02:46:53;68.57;;;46.10;;
54171;SDS011;40076;52.354;4.970;2022-10-15T02:49:20;68.70;;;44.97;;
54171;SDS011;40076;52.354;4.970;2022-10-15T02:51:45;71.40;;;46.53;;
54171;SDS011;40076;52.354;4.970;2022-10-15T02:54:10;73.75;;;47.42;;
54171;SDS011;40076;52.354;4.970;2022-10-15T02:56:35;73.93;;;47.20;;
54171;SDS011;40076;52.354;4.970;2022-10-15T02:59:03;70.20;;;47.55;;
54171;SDS011;40076;52.354;4.970;2022-10-15T03:01:29;70.43;;;47.25;;
54171;SDS011;40076;52.354;4.970;2022-10-15T03:03:55;72.65;;;48.72;;
54171;SDS011;40076;52.354;4.970;2022-10-15T03:06:20;70.60;;;48.30;;
54171;SDS011;40076;52.354;4.970;2022-10-15T03:08:45;68.50;;;49.03;;
54171;SDS011;40076;52.354;4.970;2022-10-15T03:11:11;75.75;;;47.83;;
54171;SDS011;40076;52.354;4.970;2022-10-15T03:13:38;76.13;;;49.88;;
54171;SDS011;40076;52.354;4.970;2022-10-15T03:16:05;78.35;;;50.55;;
54171;SDS011;40076;52.354;4.970;2022-10-15T03:18:32;70.50;;;48.40;;
54171;SDS011;40076;52.354;4.970;2022-10-15T03:21:00;74.95;;;50.90;;
54171;SDS011;40076;52.354;4.970;2022-10-15T03:23:26;74.45;;;48.47;;
54171;SDS011;40076;52.354;4.970;2022-10-15T03:25:52;75.22;;;50.13;;
54171;SDS011;40076;52.354;4.970;2022-10-15T03:28:18;77.15;;;50.88;;
54171;SDS011;40076;52.354;4.970;2022-10-15T03:30:44;77.03;;;50.17;;
54171;SDS011;40076;52.354;4.970;2022-10-15T03:33:09;79.03;;;49.60;;
54171;SDS011;40076;52.354;4.970;2022-10-15T03:35:35;75.88;;;50.88;;
54171;SDS011;40076;52.354;4.970;2022-10-15T03:38:00;81.20;;;51.72;;
54171;SDS011;40076;52.354;4.970;2022-10-15T03:40:26;79.25;;;51.88;;
54171;SDS011;40076;52.354;4.970;2022-10-15T03:42:57;77.68;;;50.35;;
54171;SDS011;40076;52.354;4.970;2022-10-15T03:45:22;72.40;;;48.67;;
54171;SDS011;40076;52.354;4.970;2022-10-15T03:47:48;75.43;;;49.17;;
54171;SDS011;40076;52.354;4.970;2022-10-15T03:50:14;73.95;;;49.03;;
54171;SDS011;40076;52.354;4.970;2022-10-15T03:52:39;80.38;;;51.35;;
54171;SDS011;40076;52.354;4.970;2022-10-15T03:55:05;76.47;;;52.30;;
54171;SDS011;40076;52.354;4.970;2022-10-15T03:57:35;79.53;;;50.53;;
54171;SDS011;40076;52.354;4.970;2022-10-15T04:00:05;81.15;;;52.63;;
54171;SDS011;40076;52.354;4.970;2022-10-15T04:02:34;82.40;;;52.67;;
54171;SDS011;40076;52.354;4.970;2022-10-15T04:04:59;76.72;;;52.65;;
54171;SDS011;40076;52.354;4.970;2022-10-15T04:07:25;79.70;;;52.42;;
54171;SDS011;40076;52.354;4.970;2022-10-15T04:09:50;79.50;;;51.45;;
54171;SDS011;40076;52.354;4.970;2022-10-15T04:12:16;81.60;;;51.35;;
54171;SDS011;40076;52.354;4.970;2022-10-15T04:14:42;78.85;;;51.95;;
54171;SDS011;40076;52.354;4.970;2022-10-15T04:17:08;80.57;;;51.80;;
54171;SDS011;40076;52.354;4.970;2022-10-15T04:19:33;83.38;;;50.80;;
54171;SDS011;40076;52.354;4.970;2022-10-15T04:21:59;81.97;;;52.08;;
54171;SDS011;40076;52.354;4.970;2022-10-15T04:24:24;76.35;;;50.90;;
54171;SDS011;40076;52.354;4.970;2022-10-15T04:26:50;78.35;;;51.05;;
54171;SDS011;40076;52.354;4.970;2022-10-15T04:29:15;79.45;;;50.67;;
54171;SDS011;40076;52.354;4.970;2022-10-15T04:31:41;77.57;;;51.13;;
54171;SDS011;40076;52.354;4.970;2022-10-15T04:34:14;77.55;;;52.00;;
54171;SDS011;40076;52.354;4.970;2022-10-15T04:36:39;77.78;;;49.83;;
54171;SDS011;40076;52.354;4.970;2022-10-15T04:39:04;78.13;;;51.55;;
54171;SDS011;40076;52.354;4.970;2022-10-15T04:41:30;80.35;;;52.00;;
54171;SDS011;40076;52.354;4.970;2022-10-15T04:43:56;78.05;;;52.53;;
54171;SDS011;40076;52.354;4.970;2022-10-15T04:46:24;84.20;;;54.05;;
54171;SDS011;40076;52.354;4.970;2022-10-15T04:48:51;82.38;;;52.25;;
54171;SDS011;40076;52.354;4.970;2022-10-15T04:51:22;79.55;;;53.17;;
54171;SDS011;40076;52.354;4.970;2022-10-15T04:53:47;87.78;;;54.72;;
54171;SDS011;40076;52.354;4.970;2022-10-15T04:56:13;81.75;;;53.53;;
54171;SDS011;40076;52.354;4.970;2022-10-15T04:58:45;79.32;;;52.75;;
54171;SDS011;40076;52.354;4.970;2022-10-15T05:01:13;81.75;;;52.35;;
54171;SDS011;40076;52.354;4.970;2022-10-15T05:03:57;81.85;;;53.30;;
54171;SDS011;40076;52.354;4.970;2022-10-15T05:06:22;85.50;;;54.60;;
54171;SDS011;40076;52.354;4.970;2022-10-15T05:08:48;83.50;;;53.30;;
54171;SDS011;40076;52.354;4.970;2022-10-15T05:11:15;80.90;;;55.22;;
54171;SDS011;40076;52.354;4.970;2022-10-15T05:13:44;88.15;;;55.05;;
54171;SDS011;40076;52.354;4.970;2022-10-15T05:18:38;92.55;;;57.40;;
54171;SDS011;40076;52.354;4.970;2022-10-15T05:21:05;84.93;;;55.67;;
54171;SDS011;40076;52.354;4.970;2022-10-15T05:23:30;89.53;;;57.03;;
54171;SDS011;40076;52.354;4.970;2022-10-15T05:25:59;88.07;;;56.83;;
54171;SDS011;40076;52.354;4.970;2022-10-15T05:28:25;85.85;;;55.47;;
54171;SDS011;40076;52.354;4.970;2022-10-15T05:30:51;88.90;;;59.00;;
54171;SDS011;40076;52.354;4.970;2022-10-15T05:33:16;88.32;;;56.38;;
54171;SDS011;40076;52.354;4.970;2022-10-15T05:35:44;90.93;;;59.55;;
54171;SDS011;40076;52.354;4.970;2022-10-15T05:38:09;89.85;;;56.90;;
54171;SDS011;40076;52.354;4.970;2022-10-15T05:40:34;88.25;;;57.70;;
54171;SDS011;40076;52.354;4.970;2022-10-15T05:43:00;89.72;;;58.70;;
54171;SDS011;40076;52.354;4.970;2022-10-15T05:45:25;85.32;;;57.85;;
54171;SDS011;40076;52.354;4.970;2022-10-15T05:47:53;95.97;;;60.40;;
54171;SDS011;40076;52.354;4.970;2022-10-15T05:50:20;93.05;;;60.65;;
54171;SDS011;40076;52.354;4.970;2022-10-15T05:52:46;92.60;;;61.22;;
54171;SDS011;40076;52.354;4.970;2022-10-15T05:55:11;90.60;;;58.72;;
54171;SDS011;40076;52.354;4.970;2022-10-15T05:57:39;93.03;;;60.28;;
54171;SDS011;40076;52.354;4.970;2022-10-15T06:00:04;95.70;;;62.55;;
54171;SDS011;40076;52.354;4.970;2022-10-15T06:02:31;97.10;;;61.30;;
54171;SDS011;40076;52.354;4.970;2022-10-15T06:04:59;113.47;;;63.55;;
54171;SDS011;40076;52.354;4.970;2022-10-15T06:07:25;114.10;;;63.28;;
54171;SDS011;40076;52.354;4.970;2022-10-15T06:09:51;113.22;;;64.05;;
54171;SDS011;40076;52.354;4.970;2022-10-15T06:12:19;121.80;;;66.25;;
54171;SDS011;40076;52.354;4.970;2022-10-15T06:14:45;128.05;;;65.60;;
54171;SDS011;40076;52.354;4.970;2022-10-15T06:17:10;130.32;;;67.72;;
54171;SDS011;40076;52.354;4.970;2022-10-15T06:19:35;135.50;;;67.43;;
54171;SDS011;40076;52.354;4.970;2022-10-15T06:22:01;135.80;;;66.93;;
54171;SDS011;40076;52.354;4.970;2022-10-15T06:24:26;142.90;;;67.55;;
54171;SDS011;40076;52.354;4.970;2022-10-15T06:26:51;146.95;;;68.22;;
54171;SDS011;40076;52.354;4.970;2022-10-15T06:29:20;146.30;;;69.75;;
54171;SDS011;40076;52.354;4.970;2022-10-15T06:31:45;161.38;;;71.30;;
54171;SDS011;40076;52.354;4.970;2022-10-15T06:34:10;154.98;;;70.85;;
54171;SDS011;40076;52.354;4.970;2022-10-15T06:36:36;162.15;;;71.30;;
54171;SDS011;40076;52.354;4.970;2022-10-15T06:39:04;146.07;;;67.88;;
54171;SDS011;40076;52.354;4.970;2022-10-15T06:41:30;163.23;;;69.20;;
54171;SDS011;40076;52.354;4.970;2022-10-15T06:43:55;150.88;;;66.32;;
54171;SDS011;40076;52.354;4.970;2022-10-15T06:46:20;154.75;;;65.93;;
54171;SDS011;40076;52.354;4.970;2022-10-15T06:48:46;154.20;;;65.63;;
54171;SDS011;40076;52.354;4.970;2022-10-15T06:51:11;158.63;;;64.70;;
54171;SDS011;40076;52.354;4.970;2022-10-15T06:53:37;146.85;;;60.45;;
54171;SDS011;40076;52.354;4.970;2022-10-15T06:56:05;158.48;;;62.22;;
54171;SDS011;40076;52.354;4.970;2022-10-15T06:58:30;152.20;;;61.42;;
54171;SDS011;40076;52.354;4.970;2022-10-15T07:01:03;137.25;;;57.45;;
54171;SDS011;40076;52.354;4.970;2022-10-15T07:03:30;138.82;;;56.20;;
54171;SDS011;40076;52.354;4.970;2022-10-15T07:05:55;119.88;;;52.97;;
54171;SDS011;40076;52.354;4.970;2022-10-15T07:08:20;121.28;;;54.83;;
54171;SDS011;40076;52.354;4.970;2022-10-15T07:10:46;112.50;;;50.38;;
54171;SDS011;40076;52.354;4.970;2022-10-15T07:13:11;120.22;;;52.70;;
54171;SDS011;40076;52.354;4.970;2022-10-15T07:15:37;119.80;;;52.67;;
54171;SDS011;40076;52.354;4.970;2022-10-15T07:18:04;119.60;;;52.53;;
54171;SDS011;40076;52.354;4.970;2022-10-15T07:20:30;115.20;;;52.65;;
54171;SDS011;40076;52.354;4.970;2022-10-15T07:22:56;114.63;;;51.88;;
54171;SDS011;40076;52.354;4.970;2022-10-15T07:25:25;118.43;;;52.97;;
54171;SDS011;40076;52.354;4.970;2022-10-15T07:27:51;119.63;;;53.83;;
54171;SDS011;40076;52.354;4.970;2022-10-15T07:30:17;120.85;;;53.55;;
54171;SDS011;40076;52.354;4.970;2022-10-15T07:32:42;116.20;;;54.28;;
54171;SDS011;40076;52.354;4.970;2022-10-15T07:35:08;109.40;;;50.88;;
54171;SDS011;40076;52.354;4.970;2022-10-15T07:37:33;99.18;;;47.55;;
54171;SDS011;40076;52.354;4.970;2022-10-15T07:39:59;101.47;;;47.95;;
54171;SDS011;40076;52.354;4.970;2022-10-15T07:42:24;105.00;;;49.97;;
54171;SDS011;40076;52.354;4.970;2022-10-15T07:44:50;100.38;;;47.15;;
54171;SDS011;40076;52.354;4.970;2022-10-15T07:47:15;103.78;;;48.20;;
54171;SDS011;40076;52.354;4.970;2022-10-15T07:49:41;105.28;;;48.75;;
54171;SDS011;40076;52.354;4.970;2022-10-15T07:52:06;112.82;;;49.42;;
54171;SDS011;40076;52.354;4.970;2022-10-15T07:54:43;111.30;;;48.35;;
54171;SDS011;40076;52.354;4.970;2022-10-15T07:57:08;106.47;;;47.58;;
54171;SDS011;40076;52.354;4.970;2022-10-15T07:59:34;112.65;;;47.03;;
54171;SDS011;40076;52.354;4.970;2022-10-15T08:01:59;105.05;;;47.03;;
54171;SDS011;40076;52.354;4.970;2022-10-15T08:04:25;113.68;;;48.35;;
54171;SDS011;40076;52.354;4.970;2022-10-15T08:06:50;110.03;;;47.05;;
54171;SDS011;40076;52.354;4.970;2022-10-15T08:09:15;115.53;;;49.60;;
54171;SDS011;40076;52.354;4.970;2022-10-15T08:11:44;118.50;;;49.80;;
54171;SDS011;40076;52.354;4.970;2022-10-15T08:14:09;122.03;;;50.92;;
54171;SDS011;40076;52.354;4.970;2022-10-15T08:16:35;120.28;;;50.35;;
54171;SDS011;40076;52.354;4.970;2022-10-15T08:19:00;125.60;;;50.38;;
54171;SDS011;40076;52.354;4.970;2022-10-15T08:21:25;129.77;;;50.47;;
54171;SDS011;40076;52.354;4.970;2022-10-15T08:23:51;114.90;;;47.15;;
54171;SDS011;40076;52.354;4.970;2022-10-15T08:26:16;107.18;;;47.47;;
54171;SDS011;40076;52.354;4.970;2022-10-15T08:28:45;112.35;;;47.55;;
54171;SDS011;40076;52.354;4.970;2022-10-15T08:31:10;100.43;;;45.83;;
54171;SDS011;40076;52.354;4.970;2022-10-15T08:33:36;97.57;;;44.13;;
54171;SDS011;40076;52.354;4.970;2022-10-15T08:36:05;95.10;;;44.10;;
54171;SDS011;40076;52.354;4.970;2022-10-15T08:38:32;88.70;;;40.92;;
54171;SDS011;40076;52.354;4.970;2022-10-15T08:40:58;83.43;;;41.25;;
54171;SDS011;40076;52.354;4.970;2022-10-15T08:43:30;90.25;;;43.10;;
54171;SDS011;40076;52.354;4.970;2022-10-15T08:46:02;80.13;;;38.60;;
54171;SDS011;40076;52.354;4.970;2022-10-15T08:48:35;77.57;;;39.42;;
54171;SDS011;40076;52.354;4.970;2022-10-15T08:51:07;69.00;;;36.15;;
54171;SDS011;40076;52.354;4.970;2022-10-15T08:53:37;63.53;;;34.65;;
54171;SDS011;40076;52.354;4.970;2022-10-15T08:56:11;61.95;;;33.80;;
54171;SDS011;40076;52.354;4.970;2022-10-15T08:58:50;58.90;;;33.33;;
54171;SDS011;40076;52.354;4.970;2022-10-15T09:01:27;53.88;;;31.42;;
54171;SDS011;40076;52.354;4.970;2022-10-15T09:04:00;51.53;;;30.30;;
54171;SDS011;40076;52.354;4.970;2022-10-15T09:06:42;50.83;;;29.83;;
54171;SDS011;40076;52.354;4.970;2022-10-15T09:14:42;46.78;;;27.02;;
54171;SDS011;40076;52.354;4.970;2022-10-15T09:17:19;40.72;;;25.70;;
54171;SDS011;40076;52.354;4.970;2022-10-15T09:19:50;38.83;;;26.05;;
54171;SDS011;40076;52.354;4.970;2022-10-15T09:22:18;42.10;;;25.75;;
54171;SDS011;40076;52.354;4.970;2022-10-15T09:24:48;40.25;;;26.30;;
54171;SDS011;40076;52.354;4.970;2022-10-15T09:27:17;34.35;;;23.75;;
54171;SDS011;40076;52.354;4.970;2022-10-15T09:32:34;37.65;;;24.58;;
54171;SDS011;40076;52.354;4.970;2022-10-15T09:43:03;33.08;;;23.17;;
54171;SDS011;40076;52.354;4.970;2022-10-15T09:45:30;33.28;;;22.75;;
54171;SDS011;40076;52.354;4.970;2022-10-15T09:47:57;32.75;;;23.17;;
54171;SDS011;40076;52.354;4.970;2022-10-15T09:50:47;32.00;;;22.92;;
54171;SDS011;40076;52.354;4.970;2022-10-15T09:56:15;31.50;;;24.00;;
54171;SDS011;40076;52.354;4.970;2022-10-15T09:58:48;31.45;;;23.10;;
54171;SDS011;40076;52.354;4.970;2022-10-15T10:01:25;32.25;;;24.40;;
54171;SDS011;40076;52.354;4.970;2022-10-15T10:06:47;33.17;;;25.05;;
54171;SDS011;40076;52.354;4.970;2022-10-15T10:09:19;33.08;;;24.15;;
54171;SDS011;40076;52.354;4.970;2022-10-15T10:11:51;34.65;;;24.25;;
54171;SDS011;40076;52.354;4.970;2022-10-15T10:14:26;33.45;;;23.70;;
54171;SDS011;40076;52.354;4.970;2022-10-15T10:17:13;33.58;;;24.92;;
54171;SDS011;40076;52.354;4.970;2022-10-15T10:19:42;33.63;;;24.95;;
54171;SDS011;40076;52.354;4.970;2022-10-15T10:22:13;35.88;;;25.48;;
54171;SDS011;40076;52.354;4.970;2022-10-15T10:24:43;33.53;;;24.65;;
54171;SDS011;40076;52.354;4.970;2022-10-15T10:27:22;34.72;;;23.63;;
54171;SDS011;40076;52.354;4.970;2022-10-15T10:29:52;36.15;;;24.40;;
54171;SDS011;40076;52.354;4.970;2022-10-15T10:32:27;37.53;;;24.83;;
54171;SDS011;40076;52.354;4.970;2022-10-15T10:35:02;34.65;;;23.67;;
54171;SDS011;40076;52.354;4.970;2022-10-15T10:37:29;35.35;;;24.02;;
54171;SDS011;40076;52.354;4.970;2022-10-15T10:40:18;32.83;;;22.90;;
54171;SDS011;40076;52.354;4.970;2022-10-15T10:42:48;38.15;;;24.48;;
54171;SDS011;40076;52.354;4.970;2022-10-15T10:48:40;29.08;;;19.55;;
54171;SDS011;40076;52.354;4.970;2022-10-15T10:51:09;27.40;;;18.52;;
54171;SDS011;40076;52.354;4.970;2022-10-15T10:53:39;27.25;;;18.70;;
54171;SDS011;40076;52.354;4.970;2022-10-15T10:56:12;29.38;;;18.35;;
54171;SDS011;40076;52.354;4.970;2022-10-15T10:58:39;27.25;;;17.85;;
54171;SDS011;40076;52.354;4.970;2022-10-15T11:01:05;26.50;;;17.35;;
54171;SDS011;40076;52.354;4.970;2022-10-15T11:03:34;27.95;;;18.58;;
54171;SDS011;40076;52.354;4.970;2022-10-15T11:08:35;25.58;;;16.27;;
54171;SDS011;40076;52.354;4.970;2022-10-15T11:11:22;22.42;;;14.63;;
54171;SDS011;40076;52.354;4.970;2022-10-15T11:16:52;21.08;;;14.05;;
54171;SDS011;40076;52.354;4.970;2022-10-15T11:19:37;19.48;;;13.68;;
54171;SDS011;40076;52.354;4.970;2022-10-15T11:22:15;17.85;;;11.88;;
54171;SDS011;40076;52.354;4.970;2022-10-15T11:49:47;13.45;;;9.73;;
54171;SDS011;40076;52.354;4.970;2022-10-15T11:55:10;15.55;;;11.27;;
54171;SDS011;40076;52.354;4.970;2022-10-15T11:57:57;16.40;;;10.82;;
54171;SDS011;40076;52.354;4.970;2022-10-15T12:00:35;15.02;;;11.02;;
54171;SDS011;40076;52.354;4.970;2022-10-15T12:03:13;14.02;;;10.27;;
54171;SDS011;40076;52.354;4.970;2022-10-15T12:05:49;13.32;;;9.68;;
54171;SDS011;40076;52.354;4.970;2022-10-15T12:08:18;12.38;;;8.90;;
54171;SDS011;40076;52.354;4.970;2022-10-15T12:13:37;14.02;;;9.10;;
54171;SDS011;40076;52.354;4.970;2022-10-15T12:21:37;15.20;;;10.85;;
54171;SDS011;40076;52.354;4.970;2022-10-15T12:24:05;13.07;;;9.85;;
54171;SDS011;40076;52.354;4.970;2022-10-15T12:29:47;13.50;;;9.73;;
54171;SDS011;40076;52.354;4.970;2022-10-15T12:32:22;12.30;;;9.25;;
54171;SDS011;40076;52.354;4.970;2022-10-15T12:34:55;14.32;;;9.68;;
54171;SDS011;40076;52.354;4.970;2022-10-15T12:37:23;16.13;;;10.68;;
54171;SDS011;40076;52.354;4.970;2022-10-15T12:39:57;17.75;;;10.90;;
54171;SDS011;40076;52.354;4.970;2022-10-15T12:42:33;15.30;;;10.95;;
54171;SDS011;40076;52.354;4.970;2022-10-15T12:45:02;13.98;;;10.35;;
54171;SDS011;40076;52.354;4.970;2022-10-15T12:47:47;15.05;;;11.02;;
54171;SDS011;40076;52.354;4.970;2022-10-15T12:50:26;16.23;;;11.93;;
54171;SDS011;40076;52.354;4.970;2022-10-15T12:52:57;14.07;;;11.53;;
54171;SDS011;40076;52.354;4.970;2022-10-15T12:55:33;15.07;;;11.68;;
54171;SDS011;40076;52.354;4.970;2022-10-15T13:01:04;14.70;;;11.48;;
54171;SDS011;40076;52.354;4.970;2022-10-15T13:09:05;13.85;;;11.65;;
54171;SDS011;40076;52.354;4.970;2022-10-15T13:11:46;27.52;;;12.07;;
54171;SDS011;40076;52.354;4.970;2022-10-15T13:14:27;13.27;;;10.77;;
54171;SDS011;40076;52.354;4.970;2022-10-15T13:16:53;12.70;;;10.35;;
54171;SDS011;40076;52.354;4.970;2022-10-15T13:19:22;13.48;;;10.90;;
54171;SDS011;40076;52.354;4.970;2022-10-15T13:21:56;12.38;;;10.45;;
54171;SDS011;40076;52.354;4.970;2022-10-15T13:24:25;11.73;;;9.48;;
54171;SDS011;40076;52.354;4.970;2022-10-15T13:26:52;10.98;;;8.18;;
54171;SDS011;40076;52.354;4.970;2022-10-15T13:29:23;8.48;;;7.55;;
54171;SDS011;40076;52.354;4.970;2022-10-15T13:31:54;8.70;;;7.80;;
54171;SDS011;40076;52.354;4.970;2022-10-15T13:36:51;8.45;;;7.45;;
54171;SDS011;40076;52.354;4.970;2022-10-15T13:42:05;9.93;;;7.35;;
54171;SDS011;40076;52.354;4.970;2022-10-15T13:44:38;10.85;;;7.65;;
54171;SDS011;40076;52.354;4.970;2022-10-15T13:49:50;7.53;;;6.72;;
54171;SDS011;40076;52.354;4.970;2022-10-15T13:52:16;7.72;;;6.25;;
54171;SDS011;40076;52.354;4.970;2022-10-15T13:54:43;6.88;;;6.18;;
54171;SDS011;40076;52.354;4.970;2022-10-15T13:57:11;6.82;;;5.90;;
54171;SDS011;40076;52.354;4.970;2022-10-15T13:59:42;7.97;;;5.63;;
54171;SDS011;40076;52.354;4.970;2022-10-15T14:02:09;6.65;;;4.47;;
54171;SDS011;40076;52.354;4.970;2022-10-15T14:04:36;5.47;;;2.33;;
54171;SDS011;40076;52.354;4.970;2022-10-15T14:07:03;6.60;;;2.15;;
54171;SDS011;40076;52.354;4.970;2022-10-15T14:09:47;6.60;;;1.90;;
54171;SDS011;40076;52.354;4.970;2022-10-15T14:12:13;5.47;;;1.60;;
54171;SDS011;40076;52.354;4.970;2022-10-15T14:14:40;6.35;;;1.52;;
54171;SDS011;40076;52.354;4.970;2022-10-15T14:17:12;6.13;;;1.55;;
54171;SDS011;40076;52.354;4.970;2022-10-15T14:19:50;5.35;;;1.45;;
54171;SDS011;40076;52.354;4.970;2022-10-15T14:22:22;5.72;;;1.40;;
54171;SDS011;40076;52.354;4.970;2022-10-15T14:24:51;6.25;;;1.13;;
54171;SDS011;40076;52.354;4.970;2022-10-15T14:27:21;5.68;;;1.00;;
54171;SDS011;40076;52.354;4.970;2022-10-15T14:29:50;5.32;;;1.02;;
54171;SDS011;40076;52.354;4.970;2022-10-15T14:34:47;3.25;;;0.80;;
54171;SDS011;40076;52.354;4.970;2022-10-15T14:40:25;6.72;;;1.27;;
54171;SDS011;40076;52.354;4.970;2022-10-15T14:45:28;5.72;;;0.98;;
54171;SDS011;40076;52.354;4.970;2022-10-15T14:47:59;4.20;;;0.90;;
54171;SDS011;40076;52.354;4.970;2022-10-15T14:50:33;6.18;;;1.05;;
54171;SDS011;40076;52.354;4.970;2022-10-15T14:53:04;7.65;;;1.10;;
54171;SDS011;40076;52.354;4.970;2022-10-15T14:55:32;5.43;;;1.13;;
54171;SDS011;40076;52.354;4.970;2022-10-15T14:58:07;4.45;;;1.05;;
54171;SDS011;40076;52.354;4.970;2022-10-15T15:00:44;7.97;;;1.17;;
54171;SDS011;40076;52.354;4.970;2022-10-15T15:03:20;7.68;;;1.55;;
54171;SDS011;40076;52.354;4.970;2022-10-15T15:05:50;11.60;;;1.40;;
54171;SDS011;40076;52.354;4.970;2022-10-15T15:08:20;6.07;;;1.20;;
54171;SDS011;40076;52.354;4.970;2022-10-15T15:10:47;5.88;;;0.90;;
54171;SDS011;40076;52.354;4.970;2022-10-15T15:13:23;9.55;;;1.08;;
54171;SDS011;40076;52.354;4.970;2022-10-15T15:15:50;7.90;;;1.15;;
54171;SDS011;40076;52.354;4.970;2022-10-15T15:18:16;6.95;;;1.30;;
54171;SDS011;40076;52.354;4.970;2022-10-15T15:20:42;10.00;;;1.70;;
54171;SDS011;40076;52.354;4.970;2022-10-15T15:23:15;9.68;;;1.95;;
54171;SDS011;40076;52.354;4.970;2022-10-15T15:25:43;4.85;;;1.10;;
54171;SDS011;40076;52.354;4.970;2022-10-15T15:28:12;6.30;;;1.33;;
54171;SDS011;40076;52.354;4.970;2022-10-15T15:30:40;6.18;;;1.58;;
54171;SDS011;40076;52.354;4.970;2022-10-15T15:33:10;6.10;;;1.40;;
54171;SDS011;40076;52.354;4.970;2022-10-15T15:38:04;7.17;;;1.23;;
54171;SDS011;40076;52.354;4.970;2022-10-15T15:40:31;13.57;;;1.75;;
54171;SDS011;40076;52.354;4.970;2022-10-15T15:42:57;6.63;;;1.27;;
54171;SDS011;40076;52.354;4.970;2022-10-15T15:45:23;6.88;;;1.00;;
54171;SDS011;40076;52.354;4.970;2022-10-15T15:47:50;7.53;;;1.20;;
54171;SDS011;40076;52.354;4.970;2022-10-15T15:50:16;5.10;;;0.95;;
54171;SDS011;40076;52.354;4.970;2022-10-15T15:52:49;7.55;;;1.20;;
54171;SDS011;40076;52.354;4.970;2022-10-15T15:55:17;5.72;;;1.40;;
54171;SDS011;40076;52.354;4.970;2022-10-15T15:57:43;4.15;;;0.93;;
54171;SDS011;40076;52.354;4.970;2022-10-15T16:00:09;6.50;;;0.90;;
54171;SDS011;40076;52.354;4.970;2022-10-15T16:02:44;7.38;;;1.25;;
54171;SDS011;40076;52.354;4.970;2022-10-15T16:05:10;5.30;;;0.90;;
54171;SDS011;40076;52.354;4.970;2022-10-15T16:07:38;5.15;;;1.20;;
54171;SDS011;40076;52.354;4.970;2022-10-15T16:10:03;7.00;;;1.10;;
54171;SDS011;40076;52.354;4.970;2022-10-15T16:12:33;5.20;;;1.10;;
54171;SDS011;40076;52.354;4.970;2022-10-15T16:15:02;8.15;;;1.02;;
54171;SDS011;40076;52.354;4.970;2022-10-15T16:17:27;5.47;;;1.20;;
54171;SDS011;40076;52.354;4.970;2022-10-15T16:19:53;8.13;;;1.30;;
54171;SDS011;40076;52.354;4.970;2022-10-15T16:22:18;5.93;;;1.15;;
54171;SDS011;40076;52.354;4.970;2022-10-15T16:24:43;6.90;;;1.30;;
54171;SDS011;40076;52.354;4.970;2022-10-15T16:27:09;6.57;;;1.20;;
54171;SDS011;40076;52.354;4.970;2022-10-15T16:29:34;4.55;;;0.95;;
54171;SDS011;40076;52.354;4.970;2022-10-15T16:31:59;5.03;;;1.00;;
54171;SDS011;40076;52.354;4.970;2022-10-15T16:34:25;6.65;;;1.17;;
54171;SDS011;40076;52.354;4.970;2022-10-15T16:36:51;6.40;;;1.30;;
54171;SDS011;40076;52.354;4.970;2022-10-15T16:39:19;6.18;;;1.08;;
54171;SDS011;40076;52.354;4.970;2022-10-15T16:41:44;7.22;;;1.23;;